Terminal Aerodrome Forecast
Issued by NWS Tiyan, Guam

Home | Current Version | Previous Version | Text Only | Print | Product List | Glossary On
Versions: 1 2 3 4 5 6 7 8 9 10 11 12 13 14
000
FTPQ31 PGUM 240104 AAA
TAFGUM
TAF AMD
PGUM 240104Z 2401/2506 15011KT P6SM VCSH SCT016 SCT040 BKN100
      TEMPO 2401/2405 18016KT 3SM +SHRA BKN014 OVC030
     FM240800 12008KT P6SM VCSH FEW018 SCT050 BKN120=

USA.gov is the U.S. government's official web portal to all federal, state and local government web resources and services.